Campanya meteocatpedra

Dades EMA Alfarràs

?
?
Resum diari
Dades diàries de l'estació meteorològica
Temperatura mitjana 4.0 °C
Temperatura màxima 8.1 °C 16:04 TU
Temperatura mínima 0.5 °C 4:02 TU
Humitat relativa mitjana 92%
Precipitació acumulada 47.2 mm
Ratxa màxima del vent (2 m) 24.1 km/h - 257º 1:32 TU

El tram horari està expressat en Temps Universal (TU). Cal sumar una hora en horari d'hivern i dues en horari d'estiu per passar a l'hora oficial.

Alfarràs

Metadades estació meteorol´gica
Municipi Alfarràs
Comarca Segrià
Altitud 268 m
Data alta 17.09.1997
Estat actual Operativa
Dades de període
Període
TU
TM
°C
TX
°C
TN
°C
HRM
%
PPT
mm
VVM (2 m)
km/h
DVM (2 m)
graus
VVX (2 m)
km/h
00:00 - 00:30 2.1 2.4 1.8 98 3.2 5.8 300 11.9
00:30 - 01:00 1.7 1.8 1.4 98 2.8 6.1 267 12.2
01:00 - 01:30 1.1 1.4 1.0 98 5.7 10.1 249 20.9
01:30 - 02:00 1.1 1.2 1.0 98 5.0 9.0 251 24.1
02:00 - 02:30 1.0 1.2 0.9 98 3.4 8.3 255 14.8
02:30 - 03:00 1.3 1.4 1.2 99 2.9 4.3 291 9.4
03:00 - 03:30 1.1 1.3 0.8 99 1.6 2.9 288 6.8
03:30 - 04:00 0.6 0.8 0.5 99 1.2 1.4 358 3.6
04:00 - 04:30 0.6 0.6 0.5 100 1.3 1.4 273 4.7
04:30 - 05:00 0.6 0.7 0.6 100 1.2 0.4 147 2.5
05:00 - 05:30 0.8 0.9 0.7 100 0.9 2.2 328 6.8
05:30 - 06:00 0.9 1.0 0.8 100 0.8 3.2 150 6.8
06:00 - 06:30 0.9 1.1 0.8 100 0.9 2.9 186 7.2
06:30 - 07:00 1.2 1.3 1.1 100 1.3 3.2 172 8.3
07:00 - 07:30 1.4 1.5 1.2 100 2.0 1.4 229 4.7
07:30 - 08:00 1.8 2.4 1.5 100 2.3 2.2 148 9.4
08:00 - 08:30 2.6 3.0 2.4 100 1.9 4.3 145 10.4
08:30 - 09:00 3.5 3.7 3.0 100 1.7 2.2 224 10.4
09:00 - 09:30 3.9 4.1 3.8 100 1.3 2.2 158 7.6
09:30 - 10:00 4.1 4.2 3.9 100 1.3 2.2 89 8.3
10:00 - 10:30 4.1 4.2 4.0 100 1.4 1.4 304 6.5
10:30 - 11:00 3.7 4.1 3.5 100 0.7 5.0 339 10.4
11:00 - 11:30 3.5 3.7 3.4 100 1.0 4.7 332 10.8
11:30 - 12:00 3.6 3.7 3.5 100 0.8 2.9 359 6.8
12:00 - 12:30 4.1 4.3 3.7 100 0.3 1.4 24 6.8
12:30 - 13:00 4.4 4.7 4.3 99 0.3 5.8 348 14.8
13:00 - 13:30 5.0 5.5 4.7 98 0.0 7.9 340 16.9
13:30 - 14:00 5.9 6.4 5.5 94 0.0 5.0 341 11.5
14:00 - 14:30 6.8 7.0 6.4 90 0.0 2.9 357 8.3
14:30 - 15:00 6.7 6.9 6.6 88 0.0 6.5 340 14.0
15:00 - 15:30 6.9 7.4 6.7 85 0.0 6.8 357 14.4
15:30 - 16:00 7.7 7.9 7.4 79 0.0 6.8 356 14.4
16:00 - 16:30 8.0 8.1 7.9 78 0.0 6.1 8 14.4
16:30 - 17:00 7.7 7.9 7.6 77 0.0 6.1 350 14.0
17:00 - 17:30 7.6 7.7 7.3 77 0.0 4.3 354 9.0
17:30 - 18:00 7.1 7.3 6.9 77 0.0 4.0 0 8.3
18:00 - 18:30 6.7 6.9 6.6 79 0.0 2.5 353 6.8
18:30 - 19:00 6.5 6.5 6.3 82 0.0 1.1 9 4.7
19:00 - 19:30 6.4 6.5 6.4 81 0.0 2.2 315 6.5
19:30 - 20:00 6.3 6.5 6.1 81 0.0 2.9 260 9.7
20:00 - 20:30 6.4 6.6 6.3 79 0.0 3.2 264 7.6
20:30 - 21:00 6.4 6.6 6.0 78 0.0 4.3 299 7.2
21:00 - 21:30 5.7 5.9 5.5 81 0.0 4.0 314 9.0
21:30 - 22:00 5.2 5.6 5.0 83 0.0 3.2 289 9.4
22:00 - 22:30 5.7 6.1 5.2 80 0.0 5.0 273 9.7
22:30 - 23:00 5.9 6.2 5.6 80 0.0 5.0 279 10.8
23:00 - 23:30 (s/d) (s/d) (s/d) (s/d) (s/d) (s/d) (s/d) (s/d)

Les dades en taronja només han passat un control de qualitat automàtic. Resta pendent la seva validació definitiva.